Terminal Aerodrome Forecast
Issued by NWS Burlington, VT

Home | Current Version | Previous Version | Text Only | Print | Product List | Glossary On
Versions: 1 2 3 4 5 6 7 8 9 10 11 12 13 14 15 16 17 18
000
FTUS41 KBTV 111139
TAFBTV
TAF
KBTV 111139Z 1112/1212 36009KT 6SM -SHSN SCT010 OVC025
      TEMPO 1112/1114 2SM -SHSN BR OVC012
     FM111400 34006KT P6SM BKN025
     FM111600 32005KT P6SM BKN040
     FM120500 15004KT P6SM VCSH OVC070
     FM120800 16005KT 1SM -SN BR OVC015=

USA.gov is the U.S. government's official web portal to all federal, state and local government web resources and services.